createdAt,value
2019-05-20T00:01:25.172Z,93388.02
2019-05-20T00:03:53.901Z,93383.91
2019-05-20T00:06:22.601Z,93389.22
2019-05-20T00:08:51.225Z,93393.69
2019-05-20T00:11:19.891Z,93384.80
2019-05-20T00:13:48.525Z,93392.52
2019-05-20T00:16:17.229Z,93403.47
2019-05-20T00:18:45.954Z,93391.59
2019-05-20T00:21:14.670Z,93391.78
2019-05-20T00:23:43.371Z,93404.23
2019-05-20T00:26:12.101Z,93402.41
2019-05-20T00:28:40.790Z,93405.86
2019-05-20T00:31:09.486Z,93404.28
2019-05-20T00:33:38.229Z,93407.81
2019-05-20T00:36:06.860Z,93401.11
2019-05-20T00:38:36.414Z,93404.99
2019-05-20T00:41:05.148Z,93405.72
2019-05-20T00:43:33.865Z,93405.70
2019-05-20T00:46:02.559Z,93408.44
2019-05-20T00:48:31.297Z,93405.12
2019-05-20T00:50:59.992Z,93417.26
2019-05-20T00:53:28.700Z,93414.30
2019-05-20T00:55:57.439Z,93417.27
2019-05-20T00:58:26.131Z,93427.09
2019-05-20T01:00:56.285Z,93413.64
2019-05-20T01:03:25.011Z,93408.00
2019-05-20T01:05:53.721Z,93419.16
2019-05-20T01:08:22.396Z,93428.42
2019-05-20T01:10:51.137Z,93418.29
2019-05-20T01:13:20.029Z,93424.95
2019-05-20T01:15:48.651Z,93428.27
2019-05-20T01:18:17.407Z,93427.03
2019-05-20T01:20:46.407Z,93436.20
2019-05-20T01:23:15.096Z,93436.22
2019-05-20T01:25:43.834Z,93440.84
2019-05-20T01:28:12.550Z,93442.98
2019-05-20T01:30:41.248Z,93443.08
2019-05-20T01:33:14.175Z,93443.07
2019-05-20T01:36:09.853Z,93439.30
2019-05-20T01:38:38.582Z,93426.23
2019-05-20T01:41:08.113Z,93437.95
2019-05-20T01:43:36.813Z,93432.23
2019-05-20T01:46:05.565Z,93431.14
2019-05-20T01:48:34.247Z,93430.45
2019-05-20T01:51:02.939Z,93439.06
2019-05-20T01:53:31.666Z,93434.75
2019-05-20T01:56:00.359Z,93439.91
2019-05-20T01:58:29.058Z,93430.45
2019-05-20T02:00:57.778Z,93430.85
2019-05-20T02:05:56.746Z,93432.75
2019-05-20T02:08:25.463Z,93423.20
2019-05-20T02:08:53.779Z,93429.16
2019-05-20T02:10:56.598Z,93426.72
2019-05-20T02:13:26.082Z,93422.45
2019-05-20T02:15:56.385Z,93423.09
2019-05-20T02:18:25.116Z,93417.34
2019-05-20T02:20:53.815Z,93427.25
2019-05-20T02:23:22.542Z,93430.06
2019-05-20T02:25:51.241Z,93427.83
2019-05-20T02:28:19.943Z,93435.83
2019-05-20T02:30:48.605Z,93426.55
2019-05-20T02:33:17.313Z,93419.94
2019-05-20T02:35:46.004Z,93426.47
2019-05-20T02:38:16.107Z,93426.55
2019-05-20T02:40:44.792Z,93432.66
2019-05-20T02:43:14.319Z,93430.80
2019-05-20T02:45:43.043Z,93430.79
2019-05-20T02:48:11.737Z,93428.73
2019-05-20T02:50:40.487Z,93429.09
2019-05-20T02:53:09.161Z,93429.43
2019-05-20T02:55:37.852Z,93435.66
2019-05-20T02:58:06.533Z,93437.62
2019-05-20T03:00:35.306Z,93444.72
2019-05-20T03:03:03.964Z,93434.96
2019-05-20T03:05:32.677Z,93440.63
2019-05-20T03:08:01.401Z,93445.85
2019-05-20T03:10:30.099Z,93439.92
2019-05-20T03:12:58.717Z,93439.73
2019-05-20T03:15:27.381Z,93445.80
2019-05-20T03:17:56.081Z,93438.39
2019-05-20T03:20:24.691Z,93445.67
2019-05-20T03:22:53.357Z,93444.38
2019-05-20T03:25:22.043Z,93443.48
2019-05-20T03:27:50.741Z,93445.54
2019-05-20T03:30:19.476Z,93433.67
2019-05-20T03:32:48.177Z,93442.84
2019-05-20T03:35:16.807Z,93439.31
2019-05-20T03:37:45.533Z,93444.08
2019-05-20T03:40:14.329Z,93450.44
2019-05-20T03:42:43.020Z,93455.14
2019-05-20T03:45:13.014Z,93462.36
2019-05-20T03:47:41.814Z,93462.22
2019-05-20T03:50:10.592Z,93469.69
2019-05-20T03:52:39.325Z,93476.73
2019-05-20T03:55:08.063Z,93482.45
2019-05-20T03:57:36.951Z,93482.64
2019-05-20T04:00:06.939Z,93481.00
2019-05-20T04:02:35.642Z,93490.84
2019-05-20T04:05:04.768Z,93487.56
2019-05-20T04:07:33.485Z,93483.43
2019-05-20T04:10:02.176Z,93484.59
2019-05-20T04:12:30.802Z,93490.38
2019-05-20T04:14:59.455Z,93480.58
2019-05-20T04:17:28.154Z,93488.66
2019-05-20T04:19:56.855Z,93493.94
2019-05-20T04:22:25.504Z,93492.22
2019-05-20T04:24:54.200Z,93494.75
2019-05-20T04:27:22.902Z,93488.34
2019-05-20T04:29:51.637Z,93488.83
2019-05-20T04:32:20.336Z,93484.32
2019-05-20T04:34:48.965Z,93480.98
2019-05-20T04:37:17.700Z,93483.04
2019-05-20T04:39:46.392Z,93474.55
2019-05-20T04:42:15.092Z,93478.27
2019-05-20T04:44:43.816Z,93484.64
2019-05-20T04:47:12.836Z,93486.45
2019-05-20T04:49:41.467Z,93489.42
2019-05-20T04:52:10.145Z,93489.21
2019-05-20T04:54:38.838Z,93491.44
2019-05-20T04:57:07.527Z,93485.67
2019-05-20T07:11:57.799Z,93512.65
2019-05-20T07:14:26.415Z,93506.87
2019-05-20T07:16:55.109Z,93506.14
2019-05-20T07:19:23.784Z,93507.24
2019-05-20T07:21:52.411Z,93508.89
2019-05-20T07:24:21.107Z,93505.77
2019-05-20T07:26:49.765Z,93504.77
2019-05-20T07:29:19.336Z,93506.10
2019-05-20T07:31:48.127Z,93505.13
2019-05-20T07:34:17.139Z,93508.77
2019-05-20T07:37:01.953Z,93508.89
2019-05-20T07:39:16.394Z,93506.80
2019-05-20T07:41:45.123Z,93500.82
2019-05-20T07:44:13.824Z,93504.74
2019-05-20T07:46:42.618Z,93501.91
2019-05-20T07:49:12.109Z,93510.42
2019-05-20T07:51:41.757Z,93513.11
2019-05-20T07:54:11.361Z,93511.91
2019-05-20T07:56:42.991Z,93513.88
2019-05-20T07:59:14.589Z,93515.88
2019-05-20T08:01:43.273Z,93519.26
2019-05-20T08:04:12.319Z,93524.87
2019-05-20T08:06:41.035Z,93514.20
2019-05-20T08:09:09.824Z,93515.87
2019-05-20T08:11:38.563Z,93512.83
2019-05-20T08:14:07.270Z,93512.70
2019-05-20T08:16:35.963Z,93502.64
2019-05-20T08:19:04.906Z,93502.52
2019-05-20T08:21:33.536Z,93507.77
2019-05-20T08:24:02.604Z,93505.16
2019-05-20T08:26:31.418Z,93504.45
2019-05-20T08:29:00.104Z,93515.59
2019-05-20T08:31:28.814Z,93520.00
2019-05-20T08:33:57.645Z,93513.82
2019-05-20T08:36:26.357Z,93520.80
2019-05-20T08:38:55.055Z,93517.64
2019-05-20T08:41:23.857Z,93519.95
2019-05-20T08:43:52.491Z,93511.74
2019-05-20T08:46:21.183Z,93507.66
2019-05-20T08:48:49.921Z,93517.61
2019-05-20T08:51:18.618Z,93516.94
2019-05-20T08:53:47.306Z,93522.59
2019-05-20T08:56:16.091Z,93524.85
2019-05-20T08:58:44.679Z,93520.66
2019-05-20T09:01:13.390Z,93523.48
2019-05-20T09:03:42.039Z,93525.54
2019-05-20T09:06:10.803Z,93515.17
2019-05-20T09:08:39.511Z,93513.95
2019-05-20T09:11:08.168Z,93523.49
2019-05-20T09:13:36.878Z,93530.89
2019-05-20T09:16:06.314Z,93522.91
2019-05-20T09:18:34.980Z,93518.59
2019-05-20T09:21:03.697Z,93520.72
2019-05-20T09:23:32.567Z,93521.81
2019-05-20T09:26:01.279Z,93520.73
2019-05-20T09:28:29.934Z,93516.63
2019-05-20T09:30:58.626Z,93512.08
2019-05-20T09:33:27.358Z,93506.10
2019-05-20T09:35:56.229Z,93499.84
2019-05-20T09:38:24.913Z,93502.09
2019-05-20T09:40:53.714Z,93497.05
2019-05-20T09:43:22.537Z,93499.59
2019-05-20T09:46:05.511Z,93496.23
2019-05-20T09:48:25.021Z,93505.83
2019-05-20T09:50:52.820Z,93500.33
2019-05-20T09:53:21.499Z,93497.84
2019-05-20T09:55:52.269Z,93497.08
2019-05-20T09:58:20.965Z,93488.59
2019-05-20T10:00:49.664Z,93491.84
2019-05-20T10:03:18.391Z,93483.06
2019-05-20T10:05:47.081Z,93484.69
2019-05-20T10:08:15.774Z,93486.22
2019-05-20T10:10:44.505Z,93480.22
2019-05-20T10:13:13.231Z,93493.65
2019-05-20T10:15:41.839Z,93494.95
2019-05-20T10:18:10.570Z,93489.33
2019-05-20T10:20:39.258Z,93487.96
2019-05-20T10:23:07.978Z,93490.80
2019-05-20T10:25:36.748Z,93494.21
2019-05-20T10:28:05.493Z,93499.58
2019-05-20T10:30:34.823Z,93503.45
2019-05-20T10:33:03.564Z,93513.64
2019-05-20T10:35:32.264Z,93511.70
2019-05-20T10:38:00.905Z,93528.27
2019-05-20T10:40:29.694Z,93542.53
2019-05-20T10:42:58.455Z,93543.99
2019-05-20T10:45:27.139Z,93545.77
2019-05-20T10:47:55.868Z,93542.30
2019-05-20T10:50:24.567Z,93538.30
2019-05-20T10:52:53.266Z,93544.67
2019-05-20T10:55:21.995Z,93543.30
2019-05-20T10:57:50.702Z,93538.06
2019-05-20T11:00:19.895Z,93546.09
2019-05-20T11:02:48.628Z,93552.20
2019-05-20T11:05:19.054Z,93557.88
2019-05-20T11:07:47.747Z,93545.76
2019-05-20T11:10:16.674Z,93543.58
2019-05-20T11:12:45.434Z,93543.84
2019-05-20T11:15:14.430Z,93542.97
2019-05-20T11:17:43.180Z,93533.94
2019-05-20T11:20:11.899Z,93520.63
2019-05-20T11:22:40.509Z,93519.66
2019-05-20T11:25:09.469Z,93519.44
2019-05-20T11:27:39.169Z,93513.55
2019-05-20T11:30:10.142Z,93522.69
2019-05-20T11:32:38.866Z,93521.22
2019-05-20T11:35:08.354Z,93523.16
2019-05-20T11:37:37.051Z,93529.31
2019-05-20T11:40:08.163Z,93527.05
2019-05-20T11:42:37.299Z,93523.38
2019-05-20T11:45:11.564Z,93522.17
2019-05-20T11:47:40.276Z,93519.03
2019-05-20T11:50:09.874Z,93514.14
2019-05-20T11:52:38.672Z,93513.51
2019-05-20T11:55:08.231Z,93506.53
2019-05-20T11:57:36.900Z,93509.73
2019-05-20T12:00:09.704Z,93509.61
2019-05-20T12:02:38.423Z,93504.80
2019-05-20T12:05:07.822Z,93502.62
2019-05-20T12:07:36.446Z,93502.39
2019-05-20T12:10:09.367Z,93499.91
2019-05-20T12:12:38.000Z,93500.37
2019-05-20T12:15:08.472Z,93497.34
2019-05-20T12:17:37.290Z,93499.97
2019-05-20T12:20:12.223Z,93501.70
2019-05-20T12:22:41.106Z,93506.56
2019-05-20T12:25:10.534Z,93507.67
2019-05-20T12:27:39.150Z,93516.66
2019-05-20T12:30:09.611Z,93527.14
2019-05-20T12:32:38.306Z,93536.29
2019-05-20T12:35:08.813Z,93525.53
2019-05-20T12:37:37.496Z,93568.33
2019-05-20T12:40:08.510Z,93575.44
2019-05-20T12:42:37.510Z,93607.23
2019-05-20T12:45:08.119Z,93606.55
2019-05-20T12:47:36.852Z,93627.17
2019-05-20T12:50:07.534Z,93642.63
2019-05-20T12:52:36.232Z,93638.64
2019-05-20T12:55:09.230Z,93633.41
2019-05-20T12:57:36.890Z,93641.33
2019-05-20T13:00:08.649Z,93638.22
2019-05-20T13:02:37.385Z,93638.56
2019-05-20T13:05:07.482Z,93637.84
2019-05-20T13:07:36.212Z,93635.45
2019-05-20T13:10:26.728Z,93636.69
2019-05-20T13:12:38.310Z,93631.61
2019-05-20T13:15:08.025Z,93610.45
2019-05-20T13:17:36.762Z,93599.54
2019-05-20T13:20:06.276Z,93605.87
2019-05-20T13:22:34.910Z,93609.40
2019-05-20T13:25:04.245Z,93623.30
2019-05-20T13:27:32.939Z,93620.48
2019-05-20T13:30:01.666Z,93624.30
2019-05-20T13:32:30.376Z,93622.44
2019-05-20T13:34:59.078Z,93621.20
2019-05-20T13:37:27.773Z,93619.88
2019-05-20T13:39:56.507Z,93622.81
2019-05-20T13:42:25.207Z,93620.68
2019-05-20T13:44:53.897Z,93624.81
2019-05-20T13:47:22.657Z,93625.46
2019-05-20T13:49:51.846Z,93623.75
2019-05-20T13:52:20.547Z,93620.22
2019-05-20T13:54:49.313Z,93619.86
2019-05-20T13:57:17.984Z,93614.23
2019-05-20T13:59:48.243Z,93612.13
2019-05-20T14:02:16.969Z,93616.67
2019-05-20T14:04:45.668Z,93611.77
2019-05-20T14:07:14.287Z,93617.85
2019-05-20T14:09:43.056Z,93610.59
2019-05-20T14:12:11.714Z,93623.56
2019-05-20T14:14:40.410Z,93608.84
2019-05-20T14:17:09.134Z,93615.47
2019-05-20T14:19:37.840Z,93608.66
2019-05-20T14:22:06.527Z,93626.14
2019-05-20T14:24:35.993Z,93625.55
2019-05-20T14:27:04.757Z,93627.25
2019-05-20T14:29:33.465Z,93627.20
2019-05-20T14:32:02.953Z,93629.18
2019-05-20T14:34:31.977Z,93633.58
2019-05-20T14:37:00.685Z,93632.09
2019-05-20T14:39:29.466Z,93639.99
2019-05-20T14:41:58.076Z,93650.39
2019-05-20T14:44:26.810Z,93657.52
2019-05-20T14:46:55.541Z,93664.34
2019-05-20T14:49:24.234Z,93664.67
2019-05-20T14:51:52.939Z,93666.02
2019-05-20T14:54:21.670Z,93680.67
2019-05-20T14:56:50.370Z,93674.79
2019-05-20T14:59:19.065Z,93673.24
2019-05-20T15:01:47.783Z,93669.30
2019-05-20T15:04:16.488Z,93662.20
2019-05-20T15:06:45.178Z,93655.36
2019-05-20T15:09:13.923Z,93655.76
2019-05-20T15:11:42.628Z,93657.06
2019-05-20T15:14:11.329Z,93647.20
2019-05-20T15:16:40.078Z,93639.38
2019-05-20T15:19:08.779Z,93635.86
2019-05-20T15:21:37.475Z,93625.92
2019-05-20T15:24:06.230Z,93626.43
2019-05-20T15:26:34.913Z,93621.81
2019-05-20T15:29:04.443Z,93609.42
2019-05-20T15:31:33.491Z,93622.50
2019-05-20T15:34:02.190Z,93621.30
2019-05-20T15:36:30.878Z,93614.55
2019-05-20T15:38:59.616Z,93616.30
2019-05-20T15:41:28.310Z,93625.39
2019-05-20T15:43:57.008Z,93619.72
2019-05-20T15:46:25.740Z,93620.70
2019-05-20T15:48:54.434Z,93623.69
2019-05-20T15:51:23.136Z,93621.52
2019-05-20T15:53:51.860Z,93634.20
2019-05-20T15:56:20.556Z,93637.13
2019-05-20T15:58:49.264Z,93642.25
2019-05-20T16:01:18.000Z,93636.19
2019-05-20T16:03:50.976Z,93628.09
2019-05-20T16:06:17.112Z,93632.58
2019-05-20T16:08:45.859Z,93626.05
2019-05-20T16:11:14.572Z,93629.61
2019-05-20T16:13:43.264Z,93627.31
2019-05-20T16:16:13.071Z,93625.84
2019-05-20T16:18:42.001Z,93619.27
2019-05-20T16:21:10.700Z,93621.95
2019-05-20T16:23:39.437Z,93626.39
2019-05-20T16:26:08.122Z,93626.96
2019-05-20T16:28:37.589Z,93620.91
2019-05-20T16:31:06.336Z,93632.93
2019-05-20T16:33:35.027Z,93623.27
2019-05-20T16:36:03.727Z,93610.38
2019-05-20T16:38:32.476Z,93610.95
2019-05-20T16:41:01.098Z,93615.95
2019-05-20T16:43:29.792Z,93610.33
2019-05-20T16:45:58.606Z,93611.86
2019-05-20T16:48:27.297Z,93624.41
2019-05-20T16:50:55.939Z,93620.44
2019-05-20T16:53:24.671Z,93622.87
2019-05-20T16:55:53.367Z,93625.30
2019-05-20T16:58:22.073Z,93625.75
2019-05-20T17:00:50.808Z,93620.71
2019-05-20T17:03:19.507Z,93619.14
2019-05-20T17:05:48.192Z,93622.18
2019-05-20T17:08:16.926Z,93615.56
2019-05-20T17:10:45.620Z,93623.78
2019-05-20T17:13:14.323Z,93616.33
2019-05-20T17:15:43.039Z,93628.55
2019-05-20T17:18:12.042Z,93624.22
2019-05-20T17:20:40.746Z,93626.95
2019-05-20T17:23:09.465Z,93635.02
2019-05-20T17:25:38.261Z,93643.45
2019-05-20T17:28:07.031Z,93637.77
2019-05-20T17:30:44.851Z,93650.15
2019-05-20T17:33:06.185Z,93638.73
2019-05-20T17:35:34.879Z,93648.25
2019-05-20T17:38:03.615Z,93645.98
2019-05-20T17:40:32.490Z,93641.81
2019-05-20T17:43:01.182Z,93647.25
2019-05-20T17:45:29.922Z,93658.27
2019-05-20T17:47:58.611Z,93647.62
2019-05-20T17:50:27.310Z,93656.31
2019-05-20T17:52:56.055Z,93642.78
2019-05-20T17:55:24.850Z,93667.46
2019-05-20T17:57:55.250Z,93666.03
2019-05-20T18:00:24.190Z,93667.57
2019-05-20T18:02:52.887Z,93667.61
2019-05-20T18:05:21.583Z,93661.97
2019-05-20T18:07:50.334Z,93665.42
2019-05-20T18:10:20.716Z,93662.53
2019-05-20T18:12:49.400Z,93666.80
2019-05-20T18:15:18.444Z,93668.84
2019-05-20T18:17:47.151Z,93667.09
2019-05-20T18:20:16.036Z,93666.41
2019-05-20T18:22:44.775Z,93680.31
2019-05-20T18:25:13.578Z,93666.55
2019-05-20T18:27:42.266Z,93673.31
2019-05-20T18:30:12.623Z,93678.17
2019-05-20T18:32:41.318Z,93685.49
2019-05-20T18:35:10.023Z,93674.39
2019-05-20T18:37:39.065Z,93687.92
2019-05-20T18:40:14.038Z,93700.53
2019-05-20T18:42:38.463Z,93684.98
2019-05-20T18:45:07.780Z,93701.95
2019-05-20T18:47:36.492Z,93708.85
2019-05-20T18:50:09.182Z,93702.26
2019-05-20T18:52:38.075Z,93707.97
2019-05-20T18:55:07.406Z,93706.33
2019-05-20T19:35:30.175Z,93722.13
2019-05-20T19:37:58.887Z,93725.09
2019-05-20T19:40:27.587Z,93713.23
2019-05-20T19:42:56.333Z,93723.70
2019-05-20T19:45:25.054Z,93717.48
2019-05-20T19:47:53.751Z,93716.66
2019-05-20T19:50:22.506Z,93727.84
2019-05-20T19:52:51.260Z,93715.18
2019-05-20T19:55:19.992Z,93715.10
2019-05-20T19:57:49.257Z,93719.17
2019-05-20T20:00:20.085Z,93729.13
2019-05-20T20:02:49.266Z,93720.97
2019-05-20T20:05:18.078Z,93734.05
2019-05-20T20:07:46.770Z,93720.66
2019-05-20T20:10:15.758Z,93728.84
2019-05-20T20:12:44.420Z,93730.16
2019-05-20T20:15:19.887Z,93726.36
2019-05-20T20:17:48.588Z,93724.70
2019-05-20T20:20:17.322Z,93735.34
2019-05-20T20:22:46.007Z,93732.79
2019-05-20T20:25:14.827Z,93738.00
2019-05-20T20:27:43.566Z,93753.86
2019-05-20T20:30:12.389Z,93763.14
2019-05-20T20:32:41.075Z,93765.83
2019-05-20T20:35:10.180Z,93751.33
2019-05-20T20:37:38.890Z,93754.73
2019-05-20T20:40:07.702Z,93766.32
2019-05-20T20:42:36.434Z,93767.53
2019-05-20T20:45:06.128Z,93776.17
2019-05-20T20:47:41.954Z,93775.70
2019-05-20T20:50:08.019Z,93762.57
2019-05-20T20:52:36.711Z,93775.32
2019-05-20T20:55:06.909Z,93776.09
2019-05-20T20:57:35.828Z,93776.98
2019-05-20T21:00:07.461Z,93770.65
2019-05-20T21:02:36.154Z,93774.23
2019-05-20T21:05:05.919Z,93781.92
2019-05-20T21:07:34.624Z,93780.31
2019-05-20T21:10:03.844Z,93784.44
2019-05-20T21:12:32.552Z,93780.00
2019-05-20T21:15:01.283Z,93787.69
2019-05-20T21:17:30.032Z,93791.30
2019-05-20T21:19:58.755Z,93794.56
2019-05-20T21:22:27.439Z,93794.11
2019-05-20T21:24:56.133Z,93788.89
2019-05-20T21:27:24.892Z,93779.61
2019-05-20T21:29:53.587Z,93766.36
2019-05-20T21:32:22.281Z,93768.55
2019-05-20T21:34:51.024Z,93774.52
2019-05-20T21:37:19.717Z,93786.48
2019-05-20T21:39:48.403Z,93792.13
2019-05-20T21:42:17.056Z,93781.94
2019-05-20T21:44:45.766Z,93790.55
2019-05-20T21:47:14.450Z,93785.99
2019-05-20T21:49:43.199Z,93784.42
2019-05-20T21:52:11.896Z,93785.78
2019-05-20T21:54:40.616Z,93780.88
2019-05-20T21:57:09.359Z,93794.80
2019-05-20T21:59:38.038Z,93786.45
2019-05-20T22:02:06.741Z,93779.03
2019-05-20T22:04:35.454Z,93788.80
2019-05-20T22:07:04.181Z,93787.80
2019-05-20T22:09:32.798Z,93795.20
2019-05-20T22:12:01.518Z,93790.38
2019-05-20T22:14:30.262Z,93787.70
2019-05-20T22:16:58.933Z,93788.47
2019-05-20T22:19:27.659Z,93800.58
2019-05-20T22:21:57.919Z,93797.91
2019-05-20T22:24:26.611Z,93810.38
2019-05-20T22:26:55.340Z,93802.38
2019-05-20T22:29:24.111Z,93805.08
2019-05-20T22:31:52.806Z,93806.09
2019-05-20T22:34:21.533Z,93794.80
2019-05-20T22:36:51.092Z,93801.92
2019-05-20T22:39:19.782Z,93787.81
2019-05-20T22:41:48.523Z,93792.84
2019-05-20T22:44:17.213Z,93796.91
2019-05-20T22:46:45.835Z,93800.42
2019-05-20T22:49:14.569Z,93808.48
2019-05-20T22:51:43.178Z,93804.95
2019-05-20T22:54:11.860Z,93811.33
2019-05-20T22:56:40.569Z,93812.81
2019-05-20T22:59:09.250Z,93807.14
2019-05-20T23:01:37.951Z,93797.31
2019-05-20T23:04:06.603Z,93806.17
2019-05-20T23:06:35.303Z,93819.17
2019-05-20T23:09:05.808Z,93820.56
2019-05-20T23:11:34.471Z,93822.13
2019-05-20T23:14:03.175Z,93812.89
2019-05-20T23:16:31.949Z,93814.41
2019-05-20T23:19:00.674Z,93813.48
2019-05-20T23:21:29.377Z,93809.23
2019-05-20T23:23:58.066Z,93813.67
2019-05-20T23:26:26.786Z,93819.02
2019-05-20T23:28:55.456Z,93810.06
2019-05-20T23:31:24.185Z,93813.56
2019-05-20T23:33:52.861Z,93808.08
2019-05-20T23:36:21.567Z,93813.48
2019-05-20T23:38:50.258Z,93814.72
2019-05-20T23:41:19.501Z,93817.19
2019-05-20T23:43:48.909Z,93811.28
2019-05-20T23:46:17.577Z,93805.20
2019-05-20T23:48:46.307Z,93815.27
2019-05-20T23:51:14.996Z,93817.17
2019-05-20T23:53:43.673Z,93812.58
2019-05-20T23:56:12.502Z,93810.77
2019-05-20T23:58:41.196Z,93806.68
